Greeley, NE

7:01 PM CDT on October 22, 2014 (GMT -0500)
Sharp | Change Station
CLOSE
Current Station
Airport
Location: Ord,
Elevation: 2070 ft
Nearby Weather Stations

Elev 2070 ft 41.62 °N, 98.95 °W | Updated 8 minutes ago

Overcast
Overcast
58 °F
Feels Like 58 °F
N
4
Wind Variable Wind from NNE

Today
High -- | Low -- °F
--% Chance of Precip.
Yesterday
High -- | Low -- °F
Precip. -- in
7:54 AM 6:42 PM
Waning Crescent, 1% visible
Pressure 30.02 in
Visibility 10.0 miles
Clouds Few 1200 ft
Mostly Cloudy 2200 ft
Dew Point 55 °F
Humidity 90%
Rainfall 0.14 in
Snow Depth Not available.
UV 0 out of 12
Pollen 2.60 out of 12
Air Quality Not available.
Flu Activity Sporadic
METAR KODX 222353Z AUTO 02003KT 10SM FEW012 BKN022 14/13 A3001 RMK AO2 SLP164 60014 T01440128 10189 20139 53005 $

More Conditions Fewer Conditions

Pressure 30.02 in
Visibility 10.0 miles
Clouds Few 1200 ft
Mostly Cloudy 2200 ft
Dew Point 55 °F
Humidity 90%
Rainfall 0.14 in
Snow Depth Not available.
UV 0 out of 12
Pollen 2.60 out of 12
Air Quality Not available.
Flu Activity Sporadic
METAR KODX 222353Z AUTO 02003KT 10SM FEW012 BKN022 14/13 A3001 RMK AO2 SLP164 60014 T01440128 10189 20139 53005 $

More Conditions Fewer Conditions

10-Day Weather Forecast

Almanac

Astronomy

Oct. 22, 2014 Rise Set
Actual Time 7:54 AM CDT 6:42 PM CDT
Civil Twilight 7:25 AM CDT 7:10 PM CDT
Nautical Twilight 6:53 AM CDT 7:42 PM CDT
Astronomical Twilight 6:21 AM CDT 8:14 PM CDT
Moon 6:36 AM CDT (10/22) 6:10 PM CDT (10/22)
Length of Visible Light 11h 44m
Length of Day
10h 48m
Tomorrow will be 2m 37s shorter.
Waning Crescent, 1% of the Moon is Illuminated
Today
Waning Crescent
Oct 23
New
Oct 30
First Quarter
Nov 6
Full
Nov 14
Last Quarter

Today's Extremes

State Highs State Lows

Community

WunderPhotos

Upload Photos

1,764,082 photos uploaded!

WunderBlogs® & News

Nearby

Snow Depth

Station Depth Elevation
No new snow has been reported.

Earthquake Activity

City Distance Mag. Time & Date
No recent earthquake activity has been reported nearby.
Minimum magnitude displayed is 2.5.

Coastal Water Temperatures

Place Temperature
No Stations Reporting

Nearby Weather Stations